Time;durP1;ratioP1;P1;durP2;ratioP2;P2;SDS_P1;SDS_P2;PMS_P1;PMS_P2;Temp;Humidity;BMP_temperature;BMP_pressure;BME280_temperature;BME280_humidity;BME280_pressure;Samples;Min_cycle;Max_cycle;Signal;HPM_P1;HPM_P2
2021/10/23 00:00:16;;;;;;;5.13;1.80;;;11.20;99.90;;;;;;5093822;28;20228;-62
2021/10/23 00:02:43;;;;;;;6.10;2.10;;;11.30;99.90;;;;;;5093347;28;20235;-63
2021/10/23 00:05:10;;;;;;;4.50;1.67;;;11.30;99.90;;;;;;5093731;28;20220;-62
2021/10/23 00:07:36;;;;;;;4.00;1.67;;;11.40;99.90;;;;;;5093598;28;20218;-62
2021/10/23 00:10:05;;;;;;;7.03;2.03;;;11.40;99.90;;;;;;5093486;28;20708;-61
2021/10/23 00:12:33;;;;;;;3.67;1.67;;;11.50;99.90;;;;;;5093572;28;20211;-62
2021/10/23 00:15:00;;;;;;;5.97;1.77;;;11.40;99.90;;;;;;5093610;28;20277;-62
2021/10/23 00:17:26;;;;;;;4.53;1.93;;;11.40;99.90;;;;;;5093497;28;20273;-63
2021/10/23 00:19:54;;;;;;;4.33;1.80;;;11.40;99.90;;;;;;5092819;28;20228;-63
2021/10/23 00:22:21;;;;;;;4.60;1.57;;;11.20;99.90;;;;;;5093230;28;20228;-63
2021/10/23 00:24:47;;;;;;;5.87;1.77;;;11.10;99.90;;;;;;5093005;28;20207;-63
2021/10/23 00:27:15;;;;;;;7.47;1.70;;;10.80;99.90;;;;;;5093044;28;20200;-63
2021/10/23 00:29:42;;;;;;;4.43;1.67;;;10.80;99.90;;;;;;5092689;28;20224;-63
2021/10/23 00:32:09;;;;;;;4.87;1.80;;;10.80;99.90;;;;;;5092886;28;20204;-62
2021/10/23 00:34:35;;;;;;;4.27;1.60;;;10.90;99.90;;;;;;5092567;28;20219;-63
2021/10/23 00:37:02;;;;;;;4.27;1.80;;;10.90;99.90;;;;;;5092576;28;20211;-63
2021/10/23 00:39:32;;;;;;;5.90;1.70;;;11.00;99.90;;;;;;5093045;28;20204;-65
2021/10/23 00:41:58;;;;;;;5.30;1.67;;;11.10;99.90;;;;;;5093030;28;20281;-61
2021/10/23 00:44:31;;;;;;;5.90;1.93;;;11.20;99.90;;;;;;5092570;28;20236;-62
2021/10/23 00:47:01;;;;;;;6.40;3.07;;;11.20;99.90;;;;;;5092388;28;20219;-62
2021/10/23 00:49:28;;;;;;;3.67;1.80;;;11.10;99.90;;;;;;5092161;28;20574;-62
2021/10/23 00:51:57;;;;;;;3.70;1.87;;;11.00;99.90;;;;;;5092579;28;20215;-62
2021/10/23 00:54:25;;;;;;;4.83;1.73;;;11.00;99.90;;;;;;5092357;28;20205;-62
2021/10/23 00:56:52;;;;;;;4.73;1.80;;;10.90;99.90;;;;;;5092547;28;20208;-62
2021/10/23 00:59:18;;;;;;;6.00;2.00;;;10.80;99.90;;;;;;5092239;28;20273;-62
2021/10/23 01:01:47;;;;;;;4.40;1.80;;;10.80;99.90;;;;;;5092122;28;20230;-61
2021/10/23 01:04:14;;;;;;;4.80;1.83;;;10.80;99.90;;;;;;5092355;28;20212;-63
2021/10/23 01:06:40;;;;;;;4.43;1.93;;;10.70;99.90;;;;;;5092303;28;20228;-62
2021/10/23 01:09:08;;;;;;;32.67;22.53;;;10.70;99.90;;;;;;5092123;28;20204;-62
2021/10/23 01:11:35;;;;;;;7.93;6.07;;;10.70;99.90;;;;;;5091978;28;20224;-61
2021/10/23 01:14:02;;;;;;;10.50;2.80;;;10.70;99.90;;;;;;5091723;28;20204;-62
2021/10/23 01:16:28;;;;;;;5.40;2.00;;;10.60;99.90;;;;;;5091934;28;20204;-62
2021/10/23 01:18:57;;;;;;;4.67;1.97;;;10.60;99.90;;;;;;5091979;28;20204;-63
2021/10/23 01:21:25;;;;;;;4.93;2.13;;;10.70;99.90;;;;;;5091878;28;20285;-62
2021/10/23 01:23:51;;;;;;;5.10;1.60;;;10.70;99.90;;;;;;5091882;28;20212;-62
2021/10/23 01:26:23;;;;;;;5.70;2.10;;;10.70;99.90;;;;;;5091986;28;20200;-61
2021/10/23 01:28:50;;;;;;;6.10;2.10;;;10.60;99.90;;;;;;5092189;28;20208;-62
2021/10/23 01:31:17;;;;;;;6.97;1.50;;;10.60;99.90;;;;;;5091879;28;20224;-62
2021/10/23 01:33:44;;;;;;;6.53;1.50;;;10.70;99.90;;;;;;5091870;28;20256;-62
2021/10/23 01:36:12;;;;;;;3.67;1.80;;;10.70;99.90;;;;;;5091709;28;20715;-62
2021/10/23 01:38:40;;;;;;;4.87;1.80;;;10.80;99.90;;;;;;5091598;28;20223;-62
2021/10/23 01:41:07;;;;;;;5.13;1.80;;;10.80;99.90;;;;;;5091367;28;20307;-61
2021/10/23 01:43:34;;;;;;;6.57;1.80;;;10.80;99.90;;;;;;5091299;28;20645;-62
2021/10/23 01:46:01;;;;;;;4.53;1.80;;;10.80;99.90;;;;;;5091685;28;20211;-61
2021/10/23 01:48:28;;;;;;;5.10;1.80;;;10.70;99.90;;;;;;5090879;28;20287;-62
2021/10/23 01:50:55;;;;;;;5.27;1.90;;;10.70;99.90;;;;;;5091306;28;20281;-62
2021/10/23 01:53:22;;;;;;;5.27;1.50;;;10.70;99.90;;;;;;5091315;28;20211;-62
2021/10/23 01:55:52;;;;;;;8.67;2.10;;;10.80;99.90;;;;;;5091182;28;20211;-62
2021/10/23 01:58:18;;;;;;;4.17;1.93;;;10.80;99.90;;;;;;5091334;28;20300;-62
2021/10/23 02:00:45;;;;;;;3.87;1.53;;;10.80;99.90;;;;;;5091319;28;20289;-62
2021/10/23 02:03:12;;;;;;;4.57;1.83;;;10.90;99.90;;;;;;5091196;28;20711;-61
2021/10/23 02:05:39;;;;;;;5.07;2.00;;;10.90;99.90;;;;;;5091197;28;20220;-62
2021/10/23 02:08:06;;;;;;;5.33;1.67;;;10.90;99.90;;;;;;5091051;28;20208;-62
2021/10/23 02:10:33;;;;;;;4.03;1.90;;;10.90;99.90;;;;;;5091343;28;20236;-62
2021/10/23 02:13:01;;;;;;;4.93;2.03;;;10.90;99.90;;;;;;5091123;28;20544;-61
2021/10/23 02:15:27;;;;;;;3.73;1.70;;;11.00;99.90;;;;;;5091319;28;20211;-62
2021/10/23 02:17:54;;;;;;;5.57;1.83;;;11.00;99.90;;;;;;5090929;28;20303;-62
2021/10/23 02:20:21;;;;;;;4.30;1.63;;;11.00;99.90;;;;;;5090818;28;20251;-61
2021/10/23 02:22:48;;;;;;;3.87;1.70;;;11.00;99.90;;;;;;5090876;28;20231;-61
2021/10/23 02:25:14;;;;;;;5.13;1.50;;;11.00;99.90;;;;;;5091198;28;20200;-62
2021/10/23 02:27:41;;;;;;;7.13;1.50;;;11.10;99.90;;;;;;5091149;28;20211;-62
2021/10/23 02:30:11;;;;;;;5.67;1.73;;;11.10;99.90;;;;;;5090956;28;20251;-62
2021/10/23 02:32:38;;;;;;;5.97;2.10;;;11.00;99.90;;;;;;5090869;28;20196;-62
2021/10/23 02:35:06;;;;;;;4.47;1.70;;;11.00;99.90;;;;;;5090960;28;20816;-62
2021/10/23 02:37:33;;;;;;;7.73;1.97;;;11.00;99.90;;;;;;5090855;28;20230;-62
2021/10/23 02:39:59;;;;;;;3.73;1.90;;;11.00;99.90;;;;;;5090542;28;20711;-61
2021/10/23 02:42:26;;;;;;;4.70;1.70;;;10.90;99.90;;;;;;5091198;28;20238;-61
2021/10/23 02:44:53;;;;;;;6.43;2.07;;;10.90;99.90;;;;;;5090692;28;20704;-61
2021/10/23 02:47:21;;;;;;;6.03;1.97;;;10.90;99.90;;;;;;5090938;28;20216;-61
2021/10/23 02:49:47;;;;;;;5.87;1.97;;;10.90;99.90;;;;;;5090854;28;20247;-61
2021/10/23 02:52:14;;;;;;;4.60;2.10;;;11.00;99.90;;;;;;5091290;28;20208;-61
2021/10/23 02:54:41;;;;;;;3.17;1.90;;;11.00;99.90;;;;;;5091124;28;20246;-61
2021/10/23 02:57:08;;;;;;;4.73;1.70;;;11.00;99.90;;;;;;5090835;28;20199;-61
2021/10/23 02:59:34;;;;;;;5.37;1.67;;;11.10;99.90;;;;;;5091305;28;20273;-60
2021/10/23 03:02:01;;;;;;;6.17;1.73;;;11.10;99.90;;;;;;5094813;28;20220;-61
2021/10/23 03:04:29;;;;;;;5.00;3.00;;;11.20;99.90;;;;;;5094535;28;20204;-61
2021/10/23 03:06:55;;;;;;;5.97;2.90;;;11.30;99.90;;;;;;5094766;28;20204;-61
2021/10/23 03:09:23;;;;;;;5.20;2.30;;;11.30;99.90;;;;;;5094528;28;20215;-60
2021/10/23 03:11:50;;;;;;;7.03;2.43;;;11.30;99.90;;;;;;5094842;28;20196;-62
2021/10/23 03:14:17;;;;;;;6.97;2.40;;;11.30;99.90;;;;;;5094339;28;20208;-61
2021/10/23 03:16:43;;;;;;;6.30;1.87;;;11.20;99.90;;;;;;5094616;28;20204;-60
2021/10/23 03:19:10;;;;;;;3.97;1.70;;;11.20;99.90;;;;;;5094208;28;20200;-61
2021/10/23 03:21:38;;;;;;;3.37;1.80;;;11.20;99.90;;;;;;5094468;28;20208;-61
2021/10/23 03:24:05;;;;;;;3.60;2.10;;;11.30;99.90;;;;;;5094409;28;20204;-61
2021/10/23 03:26:32;;;;;;;5.60;1.70;;;11.30;99.90;;;;;;5094317;28;20207;-60
2021/10/23 03:28:59;;;;;;;4.57;2.13;;;11.30;99.90;;;;;;5094164;28;20200;-61
2021/10/23 03:31:26;;;;;;;5.07;2.10;;;11.30;99.90;;;;;;5094312;28;20235;-61
2021/10/23 03:33:52;;;;;;;5.07;1.90;;;11.40;99.90;;;;;;5094099;28;20206;-61
2021/10/23 03:36:19;;;;;;;4.47;1.87;;;11.40;99.90;;;;;;5094164;28;20254;-61
2021/10/23 03:38:47;;;;;;;4.17;1.90;;;11.50;99.90;;;;;;5094000;28;20680;-61
2021/10/23 03:41:14;;;;;;;4.77;1.73;;;11.50;99.90;;;;;;5093860;28;20238;-61
2021/10/23 03:43:41;;;;;;;6.10;2.07;;;11.60;99.90;;;;;;5094045;28;20235;-61
2021/10/23 03:46:08;;;;;;;4.83;1.90;;;11.60;99.90;;;;;;5093817;28;20204;-61
2021/10/23 03:48:34;;;;;;;3.87;1.90;;;11.60;99.90;;;;;;5094282;28;20563;-62
2021/10/23 03:51:01;;;;;;;5.30;2.10;;;11.60;99.90;;;;;;5094317;28;20277;-61
2021/10/23 03:53:28;;;;;;;5.27;2.03;;;11.70;99.90;;;;;;5093803;28;20203;-61
2021/10/23 03:55:56;;;;;;;3.20;1.70;;;11.70;99.90;;;;;;5094075;28;20212;-61
2021/10/23 03:58:22;;;;;;;5.23;2.17;;;11.70;99.90;;;;;;5093507;28;20216;-61
2021/10/23 04:00:49;;;;;;;4.40;1.77;;;11.70;99.90;;;;;;5093864;28;20270;-60
2021/10/23 04:03:16;;;;;;;5.40;1.40;;;11.70;99.90;;;;;;5093652;28;20428;-61
2021/10/23 04:05:42;;;;;;;6.53;1.87;;;11.70;99.90;;;;;;5093378;28;20209;-61
2021/10/23 04:08:09;;;;;;;4.97;1.80;;;11.70;99.90;;;;;;5093340;28;20208;-62
2021/10/23 04:10:36;;;;;;;6.47;2.20;;;11.60;99.90;;;;;;5093304;28;20224;-62
2021/10/23 04:13:04;;;;;;;3.77;1.70;;;11.70;99.90;;;;;;5093719;28;20203;-60
2021/10/23 04:15:32;;;;;;;4.73;1.93;;;11.60;99.90;;;;;;5093449;28;20208;-61
2021/10/23 04:17:59;;;;;;;5.40;1.70;;;11.60;99.90;;;;;;5093180;28;20212;-61
2021/10/23 04:20:26;;;;;;;5.10;1.80;;;11.60;99.90;;;;;;5093122;28;20744;-61
2021/10/23 04:22:53;;;;;;;4.33;1.83;;;11.60;99.90;;;;;;5093419;28;20259;-61
2021/10/23 04:25:20;;;;;;;8.13;1.80;;;11.50;99.90;;;;;;5092916;28;20208;-62
2021/10/23 04:27:48;;;;;;;5.10;1.80;;;11.60;99.90;;;;;;5092650;28;20296;-62
2021/10/23 04:30:16;;;;;;;5.90;1.77;;;11.50;99.90;;;;;;5093272;28;20320;-62
2021/10/23 04:32:42;;;;;;;7.20;2.10;;;11.50;99.90;;;;;;5093216;28;20204;-62
2021/10/23 04:35:09;;;;;;;3.93;1.57;;;11.50;99.90;;;;;;5092861;28;20207;-62
2021/10/23 04:37:36;;;;;;;5.30;1.80;;;11.50;99.90;;;;;;5092855;28;20676;-61
2021/10/23 04:40:03;;;;;;;4.13;1.90;;;11.50;99.90;;;;;;5092507;28;20592;-62
2021/10/23 04:42:29;;;;;;;8.73;2.17;;;11.50;99.90;;;;;;5092018;28;20220;-62
2021/10/23 04:44:56;;;;;;;5.87;1.70;;;11.50;99.90;;;;;;5093155;28;20277;-61
2021/10/23 04:47:24;;;;;;;5.73;2.27;;;11.50;99.90;;;;;;5092718;28;20204;-62
2021/10/23 04:49:51;;;;;;;8.67;1.80;;;11.50;99.90;;;;;;5092908;28;20695;-62
2021/10/23 04:52:18;;;;;;;5.37;1.90;;;11.40;99.90;;;;;;5093211;28;20204;-62
2021/10/23 04:54:44;;;;;;;5.53;2.10;;;11.40;99.90;;;;;;5092272;28;20229;-62
2021/10/23 04:57:12;;;;;;;5.07;1.80;;;11.30;99.90;;;;;;5092317;28;20284;-62
2021/10/23 04:59:39;;;;;;;5.17;2.00;;;11.30;99.90;;;;;;5092345;28;20259;-61
2021/10/23 05:02:05;;;;;;;5.50;2.10;;;11.40;99.90;;;;;;5092065;28;20204;-62
2021/10/23 05:04:33;;;;;;;5.03;2.30;;;11.40;99.90;;;;;;5092177;28;20283;-62
2021/10/23 05:07:00;;;;;;;4.40;2.40;;;11.50;99.90;;;;;;5092099;28;20204;-62
2021/10/23 05:09:27;;;;;;;10.07;5.10;;;11.60;99.90;;;;;;5091907;28;20703;-61
2021/10/23 05:11:53;;;;;;;6.27;1.97;;;11.60;99.90;;;;;;5092170;28;20208;-61
2021/10/23 05:14:20;;;;;;;8.93;2.30;;;11.50;99.90;;;;;;5092114;28;20223;-62
2021/10/23 05:16:47;;;;;;;5.80;1.93;;;11.40;99.90;;;;;;5091950;28;20215;-62
2021/10/23 05:19:14;;;;;;;11.60;5.07;;;11.40;99.90;;;;;;5091804;28;20211;-62
2021/10/23 05:21:42;;;;;;;10.73;6.50;;;11.50;99.90;;;;;;5091968;28;20212;-62
2021/10/23 05:24:09;;;;;;;4.67;2.30;;;11.50;99.90;;;;;;5090839;28;20269;-62
2021/10/23 05:26:36;;;;;;;6.47;1.93;;;11.50;99.90;;;;;;5091988;28;20201;-61
2021/10/23 05:29:02;;;;;;;7.30;1.90;;;11.40;99.90;;;;;;5091715;28;20208;-62
2021/10/23 05:31:29;;;;;;;16.70;8.00;;;11.40;99.90;;;;;;5091759;28;20223;-62
2021/10/23 05:33:56;;;;;;;13.33;7.30;;;11.40;99.90;;;;;;5091507;28;20600;-61
2021/10/23 05:36:22;;;;;;;18.43;8.83;;;11.50;99.90;;;;;;5092137;28;20208;-62
2021/10/23 05:38:50;;;;;;;21.73;11.53;;;11.50;99.90;;;;;;5091411;28;20254;-62
2021/10/23 05:41:17;;;;;;;5.53;2.67;;;11.50;99.90;;;;;;5091594;28;20236;-62
2021/10/23 05:43:44;;;;;;;6.83;2.70;;;11.60;99.90;;;;;;5091440;28;20292;-61
2021/10/23 05:46:10;;;;;;;13.53;5.27;;;11.60;99.90;;;;;;5091572;28;20234;-62
2021/10/23 05:48:37;;;;;;;7.77;2.83;;;11.60;99.90;;;;;;5091299;28;20707;-61
2021/10/23 05:51:04;;;;;;;6.43;2.37;;;11.60;99.90;;;;;;5091869;28;20224;-62
2021/10/23 05:53:30;;;;;;;4.30;2.43;;;11.50;99.90;;;;;;5091399;28;20204;-61
2021/10/23 05:55:58;;;;;;;4.60;2.10;;;11.40;99.90;;;;;;5091583;28;20207;-61
2021/10/23 05:58:28;;;;;;;8.23;3.60;;;11.30;99.90;;;;;;5091003;28;20573;-61
2021/10/23 06:00:58;;;;;;;4.47;2.73;;;11.20;99.90;;;;;;5091205;28;20224;-62
2021/10/23 06:03:25;;;;;;;6.77;2.17;;;11.20;99.90;;;;;;5091001;28;20314;-61
2021/10/23 06:05:52;;;;;;;11.17;4.37;;;11.10;99.90;;;;;;5091102;28;20212;-62
2021/10/23 06:08:19;;;;;;;9.43;2.80;;;11.20;99.90;;;;;;5091294;28;20435;-62
2021/10/23 06:10:45;;;;;;;8.13;2.27;;;11.20;99.90;;;;;;5091286;28;20228;-62
2021/10/23 06:13:15;;;;;;;8.03;2.43;;;11.20;99.90;;;;;;5091431;28;20196;-62
2021/10/23 06:15:41;;;;;;;6.93;2.40;;;11.10;99.90;;;;;;5090929;28;20584;-61
2021/10/23 06:18:08;;;;;;;9.83;2.17;;;10.90;99.90;;;;;;5090883;28;20208;-62
2021/10/23 06:20:35;;;;;;;5.03;2.77;;;10.70;99.90;;;;;;5091233;28;20239;-62
2021/10/23 06:23:01;;;;;;;5.37;2.97;;;10.60;99.90;;;;;;5090938;28;20276;-62
2021/10/23 06:25:28;;;;;;;6.83;2.70;;;10.60;99.90;;;;;;5090964;28;20204;-62
2021/10/23 06:27:56;;;;;;;6.80;2.83;;;10.60;99.90;;;;;;5091012;28;20204;-60
2021/10/23 06:30:25;;;;;;;8.20;3.50;;;10.60;99.90;;;;;;5090861;28;20680;-61
2021/10/23 06:32:53;;;;;;;10.70;3.93;;;10.70;99.90;;;;;;5090745;28;20427;-61
2021/10/23 06:35:21;;;;;;;7.87;3.77;;;10.60;99.90;;;;;;5094166;28;20216;-61
2021/10/23 06:37:48;;;;;;;8.07;4.07;;;10.70;99.90;;;;;;5094856;28;20208;-61
2021/10/23 06:40:15;;;;;;;6.47;3.53;;;10.80;99.90;;;;;;5095361;28;20231;-61
2021/10/23 06:42:43;;;;;;;6.97;3.97;;;10.80;99.90;;;;;;5094889;28;20695;-62
2021/10/23 06:45:13;;;;;;;3.33;2.30;;;10.90;99.90;;;;;;5094651;28;20552;-62
2021/10/23 06:47:41;;;;;;;6.87;2.40;;;10.80;99.90;;;;;;5095204;28;20204;-61
2021/10/23 06:50:10;;;;;;;4.53;2.47;;;10.70;99.90;;;;;;5094934;28;20220;-61
2021/10/23 06:52:37;;;;;;;6.07;2.60;;;10.50;99.90;;;;;;5095117;28;20306;-61
2021/10/23 06:55:05;;;;;;;5.23;2.63;;;10.50;99.90;;;;;;5094600;28;20686;-61
2021/10/23 06:57:31;;;;;;;6.30;2.30;;;10.50;99.90;;;;;;5094561;28;20208;-62
2021/10/23 06:59:58;;;;;;;7.07;2.63;;;10.60;99.90;;;;;;5094371;28;20220;-62
2021/10/23 07:02:25;;;;;;;5.60;2.40;;;10.60;99.90;;;;;;5094677;28;20690;-61
2021/10/23 07:04:53;;;;;;;6.87;3.23;;;10.60;99.90;;;;;;5094401;28;20235;-61
2021/10/23 07:07:20;;;;;;;5.37;2.47;;;10.60;99.90;;;;;;5094363;28;20238;-61
2021/10/23 07:09:47;;;;;;;4.67;2.33;;;10.50;99.90;;;;;;5094868;28;20224;-61
2021/10/23 07:12:13;;;;;;;8.03;3.37;;;10.30;99.90;;;;;;5094660;28;20200;-61
2021/10/23 07:14:40;;;;;;;4.10;2.80;;;10.20;99.90;;;;;;5094539;28;20205;-61
2021/10/23 07:17:07;;;;;;;8.03;2.90;;;9.90;99.90;;;;;;5094514;28;20281;-62
2021/10/23 07:19:33;;;;;;;8.03;2.97;;;9.80;99.90;;;;;;5094158;28;20243;-63
2021/10/23 07:22:01;;;;;;;5.37;2.67;;;9.80;99.90;;;;;;5094344;28;20208;-61
2021/10/23 07:24:28;;;;;;;6.20;2.93;;;9.80;99.90;;;;;;5094440;28;20243;-61
2021/10/23 07:26:55;;;;;;;7.50;2.50;;;9.80;99.90;;;;;;5093984;28;20208;-61
2021/10/23 07:29:21;;;;;;;6.03;2.40;;;10.00;99.90;;;;;;5094202;28;20211;-62
2021/10/23 07:31:48;;;;;;;5.60;2.67;;;10.00;99.90;;;;;;5094294;28;20212;-62
2021/10/23 07:34:15;;;;;;;6.30;2.40;;;10.00;99.90;;;;;;5093923;28;20676;-62
2021/10/23 07:36:42;;;;;;;6.27;2.37;;;10.00;99.90;;;;;;5094103;28;20215;-62
2021/10/23 07:39:10;;;;;;;5.13;2.30;;;10.10;99.90;;;;;;5094294;28;20215;-63
2021/10/23 07:41:38;;;;;;;6.33;3.93;;;10.20;99.90;;;;;;5094481;28;20215;-63
2021/10/23 07:44:05;;;;;;;9.57;5.30;;;10.10;99.90;;;;;;5093939;28;20707;-63
2021/10/23 07:46:32;;;;;;;6.40;3.20;;;10.20;99.90;;;;;;5093211;28;20200;-63
2021/10/23 07:48:59;;;;;;;5.23;2.30;;;10.30;99.90;;;;;;5093994;28;20208;-63
2021/10/23 07:51:25;;;;;;;5.37;2.20;;;10.50;99.90;;;;;;5093691;28;20224;-63
2021/10/23 07:53:52;;;;;;;5.23;2.43;;;10.60;99.90;;;;;;5093455;28;20201;-63
2021/10/23 07:56:20;;;;;;;7.33;2.03;;;10.80;99.90;;;;;;5093654;28;20212;-63
2021/10/23 07:58:47;;;;;;;3.63;1.97;;;10.90;99.90;;;;;;5094284;28;20212;-63
2021/10/23 08:01:14;;;;;;;6.47;2.30;;;11.00;99.90;;;;;;5093439;28;20424;-63
2021/10/23 08:03:41;;;;;;;8.43;2.33;;;11.20;99.90;;;;;;5093104;28;20746;-63
2021/10/23 08:06:08;;;;;;;4.40;2.30;;;11.30;99.90;;;;;;5093598;28;20219;-63
2021/10/23 08:08:35;;;;;;;4.70;1.70;;;11.40;99.90;;;;;;5093523;28;20204;-63
2021/10/23 08:11:02;;;;;;;7.47;2.63;;;11.50;99.90;;;;;;5093570;28;20281;-62
2021/10/23 08:13:30;;;;;;;6.90;2.30;;;11.60;99.90;;;;;;5093437;28;20200;-62
2021/10/23 08:15:57;;;;;;;4.70;2.10;;;11.60;99.90;;;;;;5093515;28;20674;-62
2021/10/23 08:18:24;;;;;;;6.47;2.23;;;11.70;99.90;;;;;;5093316;28;20215;-63
2021/10/23 08:20:51;;;;;;;8.60;2.53;;;11.60;99.90;;;;;;5093118;28;20228;-63
2021/10/23 08:23:18;;;;;;;7.57;2.80;;;11.50;99.90;;;;;;5092977;28;20257;-62
2021/10/23 08:25:44;;;;;;;6.57;2.30;;;11.50;99.90;;;;;;5093005;28;20208;-62
2021/10/23 08:28:11;;;;;;;4.77;2.30;;;11.50;99.90;;;;;;5092955;28;20212;-62
2021/10/23 08:30:41;;;;;;;7.33;2.50;;;11.70;99.90;;;;;;5092801;28;20224;-63
2021/10/23 08:33:07;;;;;;;9.13;2.80;;;12.00;99.90;;;;;;5093273;28;20680;-64
2021/10/23 08:35:34;;;;;;;7.90;2.87;;;12.40;99.90;;;;;;5093015;28;20235;-63
2021/10/23 08:38:01;;;;;;;5.43;2.57;;;12.70;99.90;;;;;;5093386;28;20208;-63
2021/10/23 08:40:28;;;;;;;5.43;2.40;;;12.70;99.90;;;;;;5093268;28;20232;-62
2021/10/23 08:42:55;;;;;;;9.27;2.53;;;12.80;99.90;;;;;;5093159;28;20204;-62
2021/10/23 08:45:23;;;;;;;7.63;2.37;;;12.80;99.90;;;;;;5092686;28;20224;-62
2021/10/23 08:47:51;;;;;;;8.20;2.30;;;12.70;99.90;;;;;;5092841;28;20215;-62
2021/10/23 08:50:20;;;;;;;5.83;2.40;;;12.80;99.90;;;;;;5092691;28;20282;-63
2021/10/23 08:52:48;;;;;;;7.30;2.27;;;12.90;99.90;;;;;;5092766;28;20204;-63
2021/10/23 08:55:17;;;;;;;6.30;2.60;;;13.10;99.90;;;;;;5092489;28;20244;-63
2021/10/23 08:57:45;;;;;;;5.87;1.90;;;13.30;99.90;;;;;;5092805;28;20205;-63
2021/10/23 09:00:12;;;;;;;7.27;2.43;;;13.50;99.90;;;;;;5092886;28;20251;-62
2021/10/23 09:02:40;;;;;;;5.40;2.17;;;13.80;99.90;;;;;;5092974;28;20211;-63
2021/10/23 09:05:09;;;;;;;5.60;2.77;;;14.10;99.90;;;;;;5092630;28;20228;-61
2021/10/23 09:07:42;;;;;;;6.00;2.63;;;14.50;99.90;;;;;;5093288;28;20208;-61
2021/10/23 09:10:09;;;;;;;6.97;2.50;;;14.90;99.90;;;;;;5092524;28;20232;-62
2021/10/23 09:12:37;;;;;;;5.30;2.20;;;15.20;99.90;;;;;;5092463;28;20208;-62
2021/10/23 09:15:06;;;;;;;6.60;2.53;;;15.50;99.90;;;;;;5092303;28;20207;-63
2021/10/23 09:17:34;;;;;;;8.47;2.97;;;15.60;99.90;;;;;;5092519;28;20672;-63
2021/10/23 09:20:07;;;;;;;5.57;2.20;;;15.60;99.90;;;;;;5092552;28;20232;-62
2021/10/23 09:22:38;;;;;;;7.37;2.40;;;16.00;99.90;;;;;;5092490;28;20213;-62
2021/10/23 09:25:16;;;;;;;7.47;2.57;;;16.30;99.90;;;;;;5092692;28;20273;-62
2021/10/23 09:27:52;;;;;;;4.87;2.07;;;16.50;99.90;;;;;;5092343;28;20581;-63
2021/10/23 09:30:20;;;;;;;7.93;2.23;;;16.50;99.90;;;;;;5092661;28;20281;-63
2021/10/23 09:32:52;;;;;;;8.33;2.13;;;16.60;99.90;;;;;;5092595;28;20212;-62
2021/10/23 09:35:21;;;;;;;4.50;1.93;;;16.50;99.90;;;;;;5092417;28;20200;-63
2021/10/23 09:37:50;;;;;;;6.10;2.20;;;16.30;99.90;;;;;;5092153;28;20705;-62
2021/10/23 09:40:18;;;;;;;5.37;2.57;;;16.30;99.90;;;;;;5092107;28;20236;-62
2021/10/23 09:42:46;;;;;;;6.10;2.50;;;16.10;99.90;;;;;;5092371;28;20208;-65
2021/10/23 09:45:12;;;;;;;6.60;2.37;;;15.90;99.90;;;;;;5092146;28;20235;-62
2021/10/23 09:47:40;;;;;;;9.63;2.50;;;15.70;99.90;;;;;;5091930;28;20422;-63
2021/10/23 09:50:11;;;;;;;5.07;2.40;;;15.80;99.90;;;;;;5091849;28;20226;-62
2021/10/23 09:52:55;;;;;;;5.83;2.40;;;15.90;99.90;;;;;;5092294;28;20231;-62
2021/10/23 09:55:22;;;;;;;7.47;2.37;;;15.80;99.90;;;;;;5092599;28;20206;-62
2021/10/23 09:58:10;;;;;;;5.50;2.80;;;15.70;99.90;;;;;;5092175;28;20208;-62
2021/10/23 10:00:38;;;;;;;6.93;2.60;;;15.60;99.90;;;;;;5091933;28;20262;-63
2021/10/23 10:03:05;;;;;;;6.33;2.63;;;15.20;99.90;;;;;;5091592;28;20771;-62
2021/10/23 10:05:34;;;;;;;8.80;2.97;;;14.80;99.90;;;;;;5091448;28;20580;-62
2021/10/23 10:08:04;;;;;;;6.83;3.03;;;14.30;99.90;;;;;;5091675;28;20208;-62
2021/10/23 10:10:34;;;;;;;6.53;2.70;;;14.00;99.90;;;;;;5091659;28;20255;-63
2021/10/23 10:13:02;;;;;;;6.73;2.63;;;13.80;99.90;;;;;;5091364;28;20708;-63
2021/10/23 10:15:30;;;;;;;5.73;2.50;;;13.70;99.90;;;;;;5090954;28;20204;-63
2021/10/23 10:18:00;;;;;;;5.50;2.70;;;13.70;99.90;;;;;;5091039;28;20239;-62
2021/10/23 10:20:28;;;;;;;6.03;2.37;;;13.70;99.90;;;;;;5090948;28;20228;-63
2021/10/23 10:22:55;;;;;;;5.80;2.73;;;13.80;99.90;;;;;;5091206;28;20219;-62
2021/10/23 10:25:26;;;;;;;6.17;2.60;;;13.90;99.90;;;;;;5091202;28;20224;-63
2021/10/23 10:27:53;;;;;;;5.63;2.57;;;14.00;99.90;;;;;;5091058;28;20200;-62
2021/10/23 10:30:35;;;;;;;6.67;2.80;;;14.20;99.90;;;;;;5090953;28;20526;-62
2021/10/23 10:33:19;;;;;;;5.37;2.27;;;14.20;99.90;;;;;;5091105;28;20648;-62
2021/10/23 10:35:59;;;;;;;7.97;3.00;;;14.40;99.90;;;;;;5091386;28;20206;-62
2021/10/23 10:44:17;;;;;;;7.87;2.33;;;15.30;99.90;;;;;;5090819;28;20362;-61
2021/10/23 10:47:05;;;;;;;3.73;1.97;;;15.40;99.90;;;;;;5090763;28;20699;-62
2021/10/23 10:49:54;;;;;;;5.17;2.70;;;15.50;99.90;;;;;;5090822;28;20239;-64
2021/10/23 10:52:53;;;;;;;6.13;2.70;;;15.50;99.90;;;;;;5090929;28;20216;-63
2021/10/23 10:55:21;;;;;;;9.07;3.00;;;15.60;99.90;;;;;;5056190;28;20250;-63
2021/10/23 10:58:05;;;;;;;4.80;2.13;;;15.60;99.90;;;;;;5091169;28;20261;-62
2021/10/23 11:01:05;;;;;;;3.37;2.30;;;15.60;99.90;;;;;;5090817;28;20776;-63
2021/10/23 11:03:35;;;;;;;5.33;2.33;;;15.60;99.90;;;;;;5090480;28;20269;-63
2021/10/23 11:06:35;;;;;;;5.17;2.30;;;15.80;99.90;;;;;;5091080;28;20319;-62
2021/10/23 11:09:50;;;;;;;5.10;2.47;;;15.90;99.90;;;;;;5091206;28;20303;-63
2021/10/23 11:12:20;;;;;;;8.07;4.10;;;15.90;99.90;;;;;;5092038;28;20208;-62
2021/10/23 11:14:49;;;;;;;3.50;2.40;;;15.90;99.90;;;;;;5091003;28;20227;-63
2021/10/23 11:17:17;;;;;;;8.90;2.67;;;15.80;99.90;;;;;;5091052;28;20210;-62
2021/10/23 11:19:46;;;;;;;7.23;2.80;;;15.60;99.90;;;;;;5091114;28;20235;-62
2021/10/23 11:22:16;;;;;;;4.73;2.60;;;15.40;99.90;;;;;;5093851;28;20648;-62
2021/10/23 11:24:44;;;;;;;4.90;2.37;;;15.00;99.90;;;;;;5095075;28;20231;-62
2021/10/23 11:27:24;;;;;;;5.73;2.50;;;14.50;99.90;;;;;;5095412;28;20200;-62
2021/10/23 11:30:22;;;;;;;9.07;2.40;;;14.20;99.90;;;;;;5094999;28;20256;-62
2021/10/23 11:32:53;;;;;;;4.43;2.23;;;14.00;99.90;;;;;;5095955;28;20204;-63
2021/10/23 11:35:26;;;;;;;5.10;2.17;;;14.10;99.90;;;;;;5095079;28;20615;-62
2021/10/23 11:37:54;;;;;;;4.27;2.20;;;14.50;99.90;;;;;;5095590;28;20208;-62
2021/10/23 11:40:21;;;;;;;3.30;1.60;;;14.70;99.90;;;;;;5094882;28;20232;-62
2021/10/23 11:42:49;;;;;;;4.00;1.70;;;15.00;99.90;;;;;;5095505;28;20209;-62
2021/10/23 11:45:20;;;;;;;3.97;1.90;;;15.40;99.80;;;;;;5094186;28;20220;-62
2021/10/23 11:47:47;;;;;;;3.87;1.70;;;15.70;98.30;;;;;;5094635;28;20224;-63
2021/10/23 11:50:24;;;;;;;3.27;1.93;;;15.90;97.40;;;;;;5094317;28;20223;-62
2021/10/23 11:52:53;;;;;;;4.40;2.07;;;16.00;97.10;;;;;;5094122;28;20230;-62
2021/10/23 11:55:34;;;;;;;3.17;1.80;;;16.10;97.10;;;;;;5093945;28;20204;-63
2021/10/23 11:58:02;;;;;;;4.67;1.80;;;16.10;97.50;;;;;;5093776;28;20658;-62
2021/10/23 12:00:32;;;;;;;4.33;1.90;;;16.30;97.20;;;;;;5093499;28;20596;-62
2021/10/23 12:03:01;;;;;;;3.97;2.40;;;16.50;96.90;;;;;;5094120;28;20200;-63
2021/10/23 12:05:37;;;;;;;4.17;2.30;;;16.60;95.90;;;;;;5093980;28;20235;-62
2021/10/23 12:08:15;;;;;;;3.33;1.60;;;16.60;96.00;;;;;;5094074;28;20707;-63
2021/10/23 12:11:07;;;;;;;3.43;1.60;;;16.50;95.40;;;;;;5094399;28;20280;-63
2021/10/23 12:14:05;;;;;;;3.47;1.70;;;16.30;95.90;;;;;;5090092;28;20290;-63
2021/10/23 12:16:39;;;;;;;4.60;1.50;;;16.00;95.90;;;;;;5093611;28;20214;-63
2021/10/23 12:19:10;;;;;;;2.60;1.40;;;15.90;94.90;;;;;;5093840;28;20592;-62
2021/10/23 12:21:43;;;;;;;3.10;1.77;;;15.70;94.30;;;;;;5093455;28;20208;-63
2021/10/23 12:24:16;;;;;;;4.00;1.80;;;15.60;94.50;;;;;;5093717;28;20219;-62
2021/10/23 12:26:43;;;;;;;5.33;1.70;;;15.70;94.70;;;;;;5093616;28;20207;-66
2021/10/23 12:29:12;;;;;;;3.90;2.00;;;15.70;95.00;;;;;;5090890;28;20215;-67
2021/10/23 12:32:00;;;;;;;5.13;2.20;;;15.60;95.10;;;;;;5093424;28;20228;-66
2021/10/23 12:34:29;;;;;;;3.47;1.43;;;15.70;95.00;;;;;;5093309;28;20215;-66
2021/10/23 12:36:57;;;;;;;5.43;1.70;;;15.60;94.90;;;;;;5097056;28;20200;-66
2021/10/23 12:39:27;;;;;;;4.37;1.93;;;15.80;95.70;;;;;;5095479;28;20265;-64
2021/10/23 12:41:54;;;;;;;3.77;2.00;;;16.20;95.40;;;;;;5093902;28;20205;-63
2021/10/23 12:44:23;;;;;;;3.10;1.53;;;16.80;94.80;;;;;;5093023;28;20303;-67
2021/10/23 12:46:51;;;;;;;3.87;1.30;;;17.30;94.60;;;;;;5093186;28;20230;-65
2021/10/23 12:49:19;;;;;;;4.37;1.50;;;17.50;94.00;;;;;;5092826;28;20208;-65
2021/10/23 12:51:46;;;;;;;3.30;1.73;;;17.30;94.30;;;;;;5092868;28;20201;-64
2021/10/23 12:54:15;;;;;;;3.17;1.63;;;17.10;94.40;;;;;;5092811;28;20694;-65
2021/10/23 12:56:43;;;;;;;4.17;1.40;;;16.90;94.10;;;;;;5092864;28;20200;-66
2021/10/23 12:59:10;;;;;;;2.87;1.40;;;16.80;94.00;;;;;;5092437;28;20223;-65